Time;durP1;ratioP1;P1;durP2;ratioP2;P2;SDS_P1;SDS_P2;PMS_P1;PMS_P2;Temp;Humidity;BMP_temperature;BMP_pressure;BME280_temperature;BME280_humidity;BME280_pressure;Samples;Min_cycle;Max_cycle;Signal;HPM_P1;HPM_P2
2023/12/24 00:00:20;;;;;;;15.95;9.65;;;;;;;2.18;67.24;96630.84;5094099;28;20024;-64
2023/12/24 00:02:45;;;;;;;13.93;9.10;;;;;;;2.17;66.74;96640.56;5093853;28;20362;-63
2023/12/24 00:05:11;;;;;;;18.20;11.30;;;;;;;2.23;66.17;96644.44;5089908;28;20056;-63
2023/12/24 00:07:36;;;;;;;13.65;9.80;;;;;;;2.24;66.22;96652.19;5073633;28;20088;-64
2023/12/24 00:10:02;;;;;;;15.48;9.23;;;;;;;2.24;66.08;96636.34;5074933;28;20032;-64
2023/12/24 00:12:30;;;;;;;14.48;8.65;;;;;;;2.21;65.30;96651.66;5077093;28;20040;-64
2023/12/24 00:14:55;;;;;;;15.68;8.95;;;;;;;2.24;65.20;96638.97;5086664;28;20031;-63
2023/12/24 00:17:21;;;;;;;15.65;9.50;;;;;;;2.21;65.60;96641.13;5074809;28;20052;-63
2023/12/24 00:19:46;;;;;;;16.35;9.13;;;;;;;2.08;65.00;96626.47;5076848;28;20454;-63
2023/12/24 00:22:12;;;;;;;17.33;9.00;;;;;;;2.09;64.82;96628.13;5094028;28;20036;-63
2023/12/24 00:24:37;;;;;;;16.70;9.43;;;;;;;2.11;64.84;96628.78;5094334;28;20077;-63
2023/12/24 00:27:03;;;;;;;16.25;8.77;;;;;;;2.10;64.92;96632.41;5092979;28;20031;-62
2023/12/24 00:29:29;;;;;;;16.08;9.45;;;;;;;2.13;65.65;96633.94;5093153;28;20101;-65
2023/12/24 00:31:55;;;;;;;19.52;9.40;;;;;;;2.09;65.20;96607.00;5093959;28;20344;-63
2023/12/24 00:34:21;;;;;;;14.68;9.05;;;;;;;2.13;64.94;96618.91;5078138;28;20032;-63
2023/12/24 00:36:46;;;;;;;16.75;8.63;;;;;;;2.11;65.03;96614.78;5074508;28;20526;-63
2023/12/24 00:39:12;;;;;;;12.38;8.18;;;;;;;2.10;65.18;96624.50;5072918;28;20029;-63
2023/12/24 00:41:39;;;;;;;15.85;7.97;;;;;;;2.08;64.37;96615.09;5073677;28;20024;-62
2023/12/24 00:44:05;;;;;;;16.42;8.80;;;;;;;2.06;64.46;96636.34;5072900;28;20032;-62
2023/12/24 00:46:31;;;;;;;13.68;8.35;;;;;;;2.05;64.65;96624.13;5073713;28;20036;-63
2023/12/24 00:48:56;;;;;;;15.90;8.98;;;;;;;2.05;64.57;96621.47;5082752;28;20044;-63
2023/12/24 00:51:22;;;;;;;18.23;8.32;;;;;;;2.03;64.68;96619.97;5093787;28;20362;-63
2023/12/24 00:53:47;;;;;;;13.95;8.70;;;;;;;2.05;65.08;96621.47;5077213;28;20032;-64
2023/12/24 00:56:13;;;;;;;14.20;8.15;;;;;;;2.06;64.87;96620.50;5074422;28;20417;-62
2023/12/24 00:58:38;;;;;;;16.30;9.23;;;;;;;2.01;64.66;96614.84;5091977;28;20024;-62
2023/12/24 01:01:04;;;;;;;16.48;9.02;;;;;;;1.94;64.49;96608.53;5093560;28;20028;-63
2023/12/24 01:03:30;;;;;;;16.05;9.13;;;;;;;1.94;64.79;96603.25;5083676;28;20115;-62
2023/12/24 01:05:55;;;;;;;16.75;9.55;;;;;;;1.91;65.34;96614.06;5073671;28;20034;-63
2023/12/24 01:08:21;;;;;;;14.65;8.77;;;;;;;1.89;65.13;96608.97;5073726;28;20511;-63
2023/12/24 01:10:48;;;;;;;15.30;9.60;;;;;;;1.89;65.29;96618.66;5073598;28;20025;-63
2023/12/24 01:13:18;;;;;;;16.00;9.40;;;;;;;1.89;64.91;96611.59;5089292;28;20039;-64
2023/12/24 01:15:46;;;;;;;15.85;9.32;;;;;;;1.88;65.60;96611.72;5093464;28;20066;-63
2023/12/24 01:18:13;;;;;;;15.73;9.32;;;;;;;1.78;65.22;96594.16;5083444;28;20034;-62
2023/12/24 01:20:38;;;;;;;17.58;9.93;;;;;;;1.83;65.16;96597.19;5073030;28;20040;-62
2023/12/24 01:23:04;;;;;;;17.38;9.10;;;;;;;1.83;65.41;96597.19;5073216;28;20032;-63
2023/12/24 01:25:29;;;;;;;16.38;9.93;;;;;;;1.82;65.34;96592.06;5075594;28;20451;-64
2023/12/24 01:27:55;;;;;;;19.45;9.90;;;;;;;1.77;65.59;96586.38;5092925;28;20028;-64
2023/12/24 01:30:21;;;;;;;17.10;9.80;;;;;;;1.82;65.20;96592.88;5091560;28;20044;-63
2023/12/24 01:32:46;;;;;;;17.23;9.60;;;;;;;1.69;65.60;96587.16;5075305;28;20046;-64
2023/12/24 01:35:12;;;;;;;15.77;9.98;;;;;;;1.42;65.89;96551.91;5073181;28;20111;-63
2023/12/24 01:37:37;;;;;;;13.73;9.00;;;;;;;1.65;66.01;96588.41;5072352;28;20041;-63
2023/12/24 01:40:03;;;;;;;14.15;9.45;;;;;;;1.52;66.30;96572.94;5072341;28;20039;-63
2023/12/24 01:42:30;;;;;;;14.40;9.35;;;;;;;1.50;65.89;96566.97;5078015;28;20447;-62
2023/12/24 01:44:55;;;;;;;15.02;8.93;;;;;;;1.54;66.38;96574.47;5075028;28;20035;-63
2023/12/24 01:47:21;;;;;;;17.20;10.10;;;;;;;1.54;66.23;96568.34;5090088;28;20102;-63
2023/12/24 01:49:48;;;;;;;14.30;9.02;;;;;;;1.56;66.30;96583.03;5090641;28;20032;-63
2023/12/24 01:52:15;;;;;;;19.45;10.57;;;;;;;1.51;66.63;96576.53;5076012;28;20105;-61
2023/12/24 01:54:41;;;;;;;15.82;9.98;;;;;;;1.51;66.38;96587.09;5072229;28;20052;-62
2023/12/24 01:57:07;;;;;;;17.45;9.57;;;;;;;1.47;66.63;96583.94;5072036;28;20374;-63
2023/12/24 01:59:34;;;;;;;16.63;9.20;;;;;;;1.55;66.54;96599.84;5084337;28;20088;-63
2023/12/24 02:01:59;;;;;;;15.32;9.90;;;;;;;1.53;67.04;96601.81;5080634;28;20036;-63
2023/12/24 02:04:25;;;;;;;16.40;9.68;;;;;;;1.56;66.35;96590.97;5073004;28;20034;-63
2023/12/24 02:06:51;;;;;;;19.58;9.88;;;;;;;1.33;66.38;96553.63;5084463;28;20454;-64
2023/12/24 02:09:16;;;;;;;19.23;9.70;;;;;;;1.58;66.49;96596.91;5091999;28;20051;-63
2023/12/24 02:11:42;;;;;;;19.02;10.75;;;;;;;1.61;66.74;96589.69;5092725;28;20028;-63
2023/12/24 02:14:07;;;;;;;17.42;10.50;;;;;;;1.57;66.76;96589.97;5087670;28;20081;-62
2023/12/24 02:16:38;;;;;;;20.60;10.98;;;;;;;1.58;66.63;96581.09;5072179;28;20028;-62
2023/12/24 02:19:06;;;;;;;15.88;10.60;;;;;;;1.32;66.85;96548.50;5083771;28;20028;-63
2023/12/24 02:21:33;;;;;;;17.10;10.05;;;;;;;1.60;66.64;96590.66;5092197;28;20042;-62
2023/12/24 02:23:59;;;;;;;14.00;10.00;;;;;;;1.30;66.49;96546.00;5092152;28;20039;-63
2023/12/24 02:26:30;;;;;;;16.50;10.15;;;;;;;1.66;66.73;96590.91;5091749;28;20057;-62
2023/12/24 02:29:10;;;;;;;17.33;10.20;;;;;;;1.73;66.65;96591.16;5086697;28;20029;-63
2023/12/24 02:31:41;;;;;;;14.60;10.27;;;;;;;1.64;66.78;96577.03;5072340;28;20039;-62
2023/12/24 02:34:07;;;;;;;17.23;10.25;;;;;;;1.67;66.58;96597.84;5071938;28;20067;-63
2023/12/24 02:36:34;;;;;;;17.33;10.38;;;;;;;1.70;66.29;96596.72;5071833;28;20036;-62
2023/12/24 02:38:59;;;;;;;15.57;9.65;;;;;;;1.60;66.73;96586.22;5080307;28;20024;-63
2023/12/24 02:41:25;;;;;;;17.85;9.48;;;;;;;1.74;66.97;96597.25;5092230;28;20026;-63
2023/12/24 02:43:50;;;;;;;16.17;10.02;;;;;;;1.76;66.65;96601.41;5089395;28;20028;-62
2023/12/24 02:46:16;;;;;;;18.40;10.48;;;;;;;1.62;66.35;96578.16;5092327;28;20518;-62
2023/12/24 02:48:41;;;;;;;15.10;9.70;;;;;;;1.70;66.65;96591.44;5091972;28;20054;-62
2023/12/24 02:51:07;;;;;;;16.25;9.95;;;;;;;1.69;66.66;96593.25;5090833;28;20445;-62
2023/12/24 02:53:32;;;;;;;15.98;9.90;;;;;;;1.62;66.55;96581.63;5079244;28;20036;-62
2023/12/24 02:55:59;;;;;;;19.75;10.50;;;;;;;1.72;66.26;96600.03;5087767;28;20466;-62
2023/12/24 02:58:25;;;;;;;18.77;10.45;;;;;;;1.63;66.48;96596.47;5089361;28;20104;-63
2023/12/24 03:00:50;;;;;;;19.17;10.65;;;;;;;1.64;66.85;96602.56;5092372;28;20115;-61
2023/12/24 03:03:16;;;;;;;17.95;10.18;;;;;;;1.65;66.50;96605.06;5091972;28;20115;-61
2023/12/24 03:05:41;;;;;;;18.40;10.60;;;;;;;1.62;66.79;96597.47;5089757;28;20042;-61
2023/12/24 03:08:07;;;;;;;20.73;11.10;;;;;;;1.67;67.09;96602.28;5094614;28;20032;-62
2023/12/24 03:10:32;;;;;;;18.83;11.07;;;;;;;1.64;66.75;96598.13;5096314;28;20400;-63
2023/12/24 03:12:58;;;;;;;15.05;9.68;;;;;;;1.70;65.98;96602.81;5092391;28;20024;-61
2023/12/24 03:15:24;;;;;;;19.90;10.77;;;;;;;1.65;66.53;96605.06;5075533;28;20140;-63
2023/12/24 03:17:49;;;;;;;15.32;9.90;;;;;;;1.61;66.61;96602.88;5076072;28;20115;-63
2023/12/24 03:20:15;;;;;;;18.55;10.68;;;;;;;1.64;66.53;96607.84;5091998;28;20076;-63
2023/12/24 03:22:40;;;;;;;16.27;10.05;;;;;;;1.65;66.21;96609.50;5095339;28;20107;-63
2023/12/24 03:25:06;;;;;;;15.98;9.88;;;;;;;1.61;66.68;96602.88;5095412;28;20057;-62
2023/12/24 03:27:36;;;;;;;14.98;9.90;;;;;;;1.65;66.20;96615.63;5092771;28;20020;-62
2023/12/24 03:30:02;;;;;;;14.80;9.82;;;;;;;1.66;66.47;96614.66;5085036;28;20044;-63
2023/12/24 03:32:30;;;;;;;17.15;10.65;;;;;;;1.35;66.36;96569.28;5093575;28;20040;-65
2023/12/24 03:34:56;;;;;;;15.38;9.60;;;;;;;1.62;66.65;96608.00;5077030;28;20543;-62
2023/12/24 03:37:23;;;;;;;17.70;10.27;;;;;;;1.65;66.03;96609.50;5075178;28;20044;-64
2023/12/24 03:39:48;;;;;;;17.13;10.23;;;;;;;1.57;66.29;96615.53;5075502;28;20028;-63
2023/12/24 03:42:13;;;;;;;18.02;9.70;;;;;;;1.52;66.64;96610.69;5075705;28;20047;-62
2023/12/24 03:44:39;;;;;;;16.63;9.52;;;;;;;1.56;66.62;96617.31;5089031;28;20033;-62
2023/12/24 03:47:05;;;;;;;16.50;10.07;;;;;;;1.56;66.28;96622.59;5074212;28;20032;-62
2023/12/24 03:49:30;;;;;;;15.45;9.65;;;;;;;1.55;66.68;96620.94;5075475;28;20032;-62
2023/12/24 03:51:56;;;;;;;16.88;10.10;;;;;;;1.58;66.21;96636.47;5076189;28;20052;-62
2023/12/24 03:54:21;;;;;;;15.57;9.90;;;;;;;1.58;66.55;96623.28;5092035;28;20039;-64
2023/12/24 03:56:47;;;;;;;14.38;9.23;;;;;;;1.51;66.52;96627.50;5094123;28;20487;-64
2023/12/24 03:59:13;;;;;;;16.98;9.93;;;;;;;1.35;66.25;96577.19;5091058;28;20103;-63
2023/12/24 04:01:39;;;;;;;13.82;9.65;;;;;;;1.59;66.18;96629.41;5095129;28;20028;-61
2023/12/24 04:04:05;;;;;;;14.10;9.43;;;;;;;1.51;66.17;96618.72;5094347;28;20508;-64
2023/12/24 04:06:30;;;;;;;14.00;9.98;;;;;;;1.50;66.28;96628.47;5088540;28;20028;-62
2023/12/24 04:08:56;;;;;;;14.52;9.75;;;;;;;1.28;66.35;96588.31;5075917;28;20025;-62
2023/12/24 04:11:21;;;;;;;15.48;9.55;;;;;;;1.49;66.38;96618.91;5075140;28;20661;-62
2023/12/24 04:13:47;;;;;;;15.75;9.50;;;;;;;1.51;66.81;96630.13;5090564;28;20036;-63
2023/12/24 04:16:12;;;;;;;19.73;9.60;;;;;;;1.51;66.59;96626.63;5094502;28;20510;-63
2023/12/24 04:18:38;;;;;;;18.38;10.45;;;;;;;1.49;66.86;96633.88;5093872;28;20032;-63
2023/12/24 04:21:04;;;;;;;17.70;10.55;;;;;;;1.48;66.83;96626.94;5094494;28;20042;-62
2023/12/24 04:23:29;;;;;;;15.77;10.15;;;;;;;1.47;67.03;96628.75;5093572;28;20442;-62
2023/12/24 04:25:55;;;;;;;16.77;10.65;;;;;;;1.47;66.49;96628.75;5094338;28;20055;-61
2023/12/24 04:28:20;;;;;;;17.73;11.13;;;;;;;1.48;66.92;96629.56;5085168;28;20054;-62
2023/12/24 04:30:46;;;;;;;16.20;10.43;;;;;;;1.48;66.63;96645.38;5073638;28;20059;-63
2023/12/24 04:33:12;;;;;;;16.02;10.02;;;;;;;1.45;66.80;96638.63;5074081;28;20051;-62
2023/12/24 04:35:38;;;;;;;15.75;9.77;;;;;;;1.42;66.91;96652.06;5073105;28;20124;-62
2023/12/24 04:38:03;;;;;;;15.00;9.50;;;;;;;1.40;67.27;96648.75;5073970;28;20111;-62
2023/12/24 04:40:29;;;;;;;18.23;10.30;;;;;;;1.42;67.03;96637.09;5074376;28;20029;-62
2023/12/24 04:42:55;;;;;;;14.95;9.77;;;;;;;1.50;66.44;96649.56;5080368;28;20115;-62
2023/12/24 04:45:20;;;;;;;14.93;9.68;;;;;;;1.42;66.92;96645.00;5093353;28;20059;-63
2023/12/24 04:47:46;;;;;;;17.42;9.27;;;;;;;1.34;67.07;96628.25;5087617;28;20035;-63
2023/12/24 04:50:11;;;;;;;19.15;10.05;;;;;;;1.40;67.46;96646.13;5073915;28;20123;-62
2023/12/24 04:52:37;;;;;;;14.45;9.93;;;;;;;1.38;67.13;96650.69;5078216;28;20043;-63
2023/12/24 04:55:06;;;;;;;20.05;10.45;;;;;;;1.40;67.42;96644.31;5093969;28;20040;-61
2023/12/24 04:57:32;;;;;;;16.13;10.48;;;;;;;1.42;67.71;96657.34;5087797;28;20067;-62
2023/12/24 04:59:58;;;;;;;17.38;9.55;;;;;;;1.45;67.39;96654.44;5073004;28;20123;-63
2023/12/24 05:02:24;;;;;;;17.98;10.63;;;;;;;1.41;67.46;96645.13;5081417;28;20021;-62
2023/12/24 05:04:50;;;;;;;15.68;9.68;;;;;;;1.52;67.11;96662.56;5093157;28;20028;-62
2023/12/24 05:07:16;;;;;;;16.33;10.55;;;;;;;1.51;67.67;96656.50;5087180;28;20086;-61
2023/12/24 05:09:42;;;;;;;21.00;10.85;;;;;;;1.49;66.95;96652.31;5073113;28;20024;-61
2023/12/24 05:12:08;;;;;;;15.80;10.00;;;;;;;1.45;67.28;96648.31;5076671;28;20020;-63
2023/12/24 05:14:37;;;;;;;16.27;9.98;;;;;;;1.58;67.26;96675.22;5089013;28;20040;-62
2023/12/24 05:17:03;;;;;;;15.40;9.55;;;;;;;1.53;67.50;96665.09;5056234;28;20115;-63
2023/12/24 05:19:29;;;;;;;15.35;9.70;;;;;;;1.54;67.19;96673.81;5086644;28;20498;-62
2023/12/24 05:21:54;;;;;;;17.52;9.77;;;;;;;1.52;67.42;96668.69;5092156;28;20116;-63
2023/12/24 05:24:21;;;;;;;16.15;9.65;;;;;;;1.54;67.02;96668.53;5093594;28;20177;-62
2023/12/24 05:26:46;;;;;;;16.08;9.80;;;;;;;1.48;67.16;96662.06;5085639;28;20099;-63
2023/12/24 05:29:12;;;;;;;16.52;9.80;;;;;;;1.55;67.44;96686.88;5071243;28;20052;-62
2023/12/24 05:31:39;;;;;;;17.95;10.32;;;;;;;1.54;67.61;96669.38;5072879;28;20052;-62
2023/12/24 05:34:04;;;;;;;15.27;9.68;;;;;;;1.48;67.81;96677.88;5073539;28;20060;-62
2023/12/24 05:36:32;;;;;;;16.80;9.68;;;;;;;1.53;67.48;96683.53;5072922;28;20475;-63
2023/12/24 05:38:58;;;;;;;13.85;9.60;;;;;;;1.54;67.48;96685.19;5084853;28;20111;-63
2023/12/24 05:41:24;;;;;;;14.65;9.70;;;;;;;1.46;67.69;96671.06;5088518;28;20028;-63
2023/12/24 05:43:49;;;;;;;13.55;9.68;;;;;;;1.56;67.60;96688.53;5093378;28;20024;-64
2023/12/24 05:46:15;;;;;;;14.40;9.68;;;;;;;1.45;67.63;96693.97;5086577;28;20032;-62
2023/12/24 05:48:41;;;;;;;16.83;10.02;;;;;;;1.43;67.96;96699.38;5076565;28;20024;-62
2023/12/24 05:51:07;;;;;;;15.65;9.88;;;;;;;1.41;68.21;96697.84;5092543;28;20391;-62
2023/12/24 05:53:33;;;;;;;16.73;11.30;;;;;;;1.31;68.38;96694.44;5092735;28;20085;-63
2023/12/24 05:55:59;;;;;;;13.38;9.45;;;;;;;1.26;68.39;96693.06;5090744;28;20123;-62
2023/12/24 05:58:25;;;;;;;13.20;9.45;;;;;;;1.32;68.44;96709.28;5091956;28;20020;-64
2023/12/24 06:00:54;;;;;;;19.08;10.48;;;;;;;1.39;68.66;96705.94;5092025;28;20442;-62
2023/12/24 06:03:20;;;;;;;14.57;9.68;;;;;;;1.39;68.88;96710.34;5089961;28;20028;-64
2023/12/24 06:05:45;;;;;;;14.15;9.55;;;;;;;1.45;69.17;96720.34;5091284;28;20035;-64
2023/12/24 06:08:16;;;;;;;14.35;9.63;;;;;;;1.53;69.26;96722.25;5091064;28;20443;-63
2023/12/24 06:10:41;;;;;;;15.45;9.52;;;;;;;1.50;69.36;96723.38;5088708;28;20112;-63
2023/12/24 06:13:07;;;;;;;14.45;9.85;;;;;;;0.96;68.66;96642.22;5092160;28;20099;-64
2023/12/24 06:15:33;;;;;;;14.50;10.13;;;;;;;1.47;69.04;96705.22;5091958;28;20040;-65
2023/12/24 06:17:58;;;;;;;17.05;10.23;;;;;;;1.58;69.44;96722.66;5091730;28;20663;-63
2023/12/24 06:20:23;;;;;;;14.27;9.32;;;;;;;1.62;69.75;96741.66;5091831;28;20407;-63
2023/12/24 06:22:49;;;;;;;14.82;9.98;;;;;;;1.63;69.86;96732.75;5092094;28;20028;-64
2023/12/24 06:25:15;;;;;;;14.48;9.70;;;;;;;1.65;69.47;96733.44;5088189;28;20108;-63
2023/12/24 06:27:40;;;;;;;17.45;10.25;;;;;;;1.54;69.39;96729.19;5091003;28;20427;-63
2023/12/24 06:30:07;;;;;;;14.52;10.02;;;;;;;1.63;69.29;96735.41;5091097;28;20039;-64
2023/12/24 06:32:33;;;;;;;14.43;9.60;;;;;;;1.62;69.42;96733.75;5091502;28;20084;-62
2023/12/24 06:34:58;;;;;;;16.55;10.40;;;;;;;1.61;69.43;96726.81;5091053;28;20043;-67
2023/12/24 06:37:24;;;;;;;14.75;9.77;;;;;;;1.58;69.17;96730.59;5091857;28;20119;-67
2023/12/24 06:39:49;;;;;;;13.65;10.05;;;;;;;1.63;69.64;96738.88;5089596;28;20024;-68
2023/12/24 06:42:15;;;;;;;15.27;10.15;;;;;;;1.72;69.40;96732.72;5095300;28;20070;-66
2023/12/24 06:44:41;;;;;;;15.45;10.20;;;;;;;1.77;69.74;96748.13;5095193;28;20042;-65
2023/12/24 06:47:06;;;;;;;17.45;10.88;;;;;;;1.70;68.96;96739.16;5095770;28;20447;-67
2023/12/24 06:49:32;;;;;;;13.63;8.75;;;;;;;1.80;68.59;96752.28;5095499;28;20028;-67
2023/12/24 06:51:57;;;;;;;14.32;8.65;;;;;;;1.53;68.32;96702.00;5092801;28;20024;-66
2023/12/24 06:54:23;;;;;;;14.27;8.68;;;;;;;1.76;68.88;96751.75;5094712;28;20032;-66
2023/12/24 06:56:49;;;;;;;15.98;9.65;;;;;;;1.75;68.71;96751.88;5076330;28;20436;-66
2023/12/24 06:59:14;;;;;;;15.48;9.05;;;;;;;1.68;68.70;96744.56;5095499;28;20028;-65
2023/12/24 07:01:40;;;;;;;13.07;9.00;;;;;;;1.72;69.05;96764.38;5095317;28;20119;-57
2023/12/24 07:04:05;;;;;;;15.75;9.15;;;;;;;1.71;68.76;96759.28;5090996;28;20111;-64
2023/12/24 07:06:31;;;;;;;14.20;8.85;;;;;;;1.67;68.59;96749.97;5094196;28;20028;-63
2023/12/24 07:08:56;;;;;;;13.02;9.40;;;;;;;1.72;69.26;96763.56;5093660;28;20361;-61
2023/12/24 07:11:22;;;;;;;14.50;9.15;;;;;;;1.69;68.28;96753.31;5095355;28;20024;-64
2023/12/24 07:13:48;;;;;;;15.43;9.70;;;;;;;1.73;68.00;96767.88;5093855;28;20028;-59
2023/12/24 07:16:13;;;;;;;12.45;8.60;;;;;;;1.70;67.54;96753.16;5093888;28;20032;-62
2023/12/24 07:18:39;;;;;;;13.07;8.55;;;;;;;1.79;67.68;96766.44;5091805;28;20028;-62
2023/12/24 07:21:05;;;;;;;13.27;9.00;;;;;;;1.83;67.91;96766.00;5095469;28;20032;-66
2023/12/24 07:23:31;;;;;;;14.27;9.30;;;;;;;1.82;67.13;96779.38;5090560;28;20059;-66
2023/12/24 07:25:56;;;;;;;12.95;8.55;;;;;;;1.84;67.54;96780.06;5094308;28;20078;-67
2023/12/24 07:28:22;;;;;;;14.60;9.05;;;;;;;1.89;67.30;96769.03;5093867;28;20031;-67
2023/12/24 07:30:47;;;;;;;15.07;9.80;;;;;;;1.93;67.21;96775.69;5094927;28;20044;-67
2023/12/24 07:33:13;;;;;;;13.73;9.48;;;;;;;1.93;67.35;96771.25;5104047;28;20092;-64
2023/12/24 07:35:39;;;;;;;15.93;10.50;;;;;;;1.96;66.60;96764.88;5097916;28;20038;-69
2023/12/24 07:38:05;;;;;;;16.92;9.90;;;;;;;1.94;66.90;96778.19;5089175;28;20039;-68
2023/12/24 07:40:31;;;;;;;13.40;9.52;;;;;;;1.97;66.68;96774.44;5081761;28;20028;-73
2023/12/24 07:42:59;;;;;;;20.05;9.80;;;;;;;2.04;67.21;96772.03;5076737;28;20027;-69
2023/12/24 07:45:27;;;;;;;15.05;10.23;;;;;;;2.06;66.14;96781.47;5080113;28;20024;-69
2023/12/24 07:47:53;;;;;;;17.60;10.30;;;;;;;2.04;66.17;96785.22;5073920;28;20094;-68
2023/12/24 07:50:19;;;;;;;14.65;9.32;;;;;;;2.03;66.27;96787.06;5074957;28;20040;-70
2023/12/24 07:52:44;;;;;;;11.98;8.93;;;;;;;2.01;66.37;96773.19;5082402;28;20039;-70
2023/12/24 07:55:10;;;;;;;15.70;9.13;;;;;;;2.09;65.90;96773.28;5089668;28;20464;-71
2023/12/24 07:57:35;;;;;;;12.20;7.82;;;;;;;2.21;65.79;96789.75;5074704;28;20450;-72
2023/12/24 08:00:03;;;;;;;13.30;8.48;;;;;;;2.24;64.91;96783.34;5074733;28;20355;-74
2023/12/24 08:02:30;;;;;;;15.07;9.02;;;;;;;2.31;64.78;96784.41;5074585;28;20078;-71
2023/12/24 08:04:55;;;;;;;10.40;7.43;;;;;;;2.33;64.54;96779.81;5088288;28;20096;-70
2023/12/24 08:07:23;;;;;;;11.07;7.78;;;;;;;2.41;64.40;96782.56;5086643;28;20436;-72
2023/12/24 08:09:49;;;;;;;11.35;8.07;;;;;;;2.42;64.62;96781.59;5074088;28;20029;-72
2023/12/24 08:12:15;;;;;;;14.25;7.68;;;;;;;2.49;63.69;96781.00;5073181;28;20394;-71
2023/12/24 08:14:40;;;;;;;13.68;7.82;;;;;;;2.52;63.78;96789.44;5074590;28;20029;-72
2023/12/24 08:17:06;;;;;;;13.50;8.15;;;;;;;2.56;64.04;96787.34;5074328;28;20024;-74
2023/12/24 08:19:32;;;;;;;15.10;8.23;;;;;;;2.57;63.75;96786.34;5072874;28;20351;-72
2023/12/24 08:21:57;;;;;;;11.70;7.90;;;;;;;2.68;63.40;96786.16;5081295;28;20036;-72
2023/12/24 08:24:23;;;;;;;10.75;7.18;;;;;;;2.70;63.17;96776.28;5093234;28;20126;-72
2023/12/24 08:26:48;;;;;;;11.23;7.57;;;;;;;2.78;62.05;96788.75;5092340;28;20125;-72
2023/12/24 08:29:14;;;;;;;10.25;7.28;;;;;;;2.80;62.30;96794.72;5074780;28;20058;-72
2023/12/24 08:31:40;;;;;;;11.60;7.28;;;;;;;2.83;61.92;96780.34;5073545;28;20037;-72
2023/12/24 08:34:06;;;;;;;10.82;7.28;;;;;;;2.75;62.51;96765.25;5072688;28;20051;-73
2023/12/24 08:36:32;;;;;;;9.02;6.60;;;;;;;2.90;61.94;96773.50;5076775;28;20024;-73
2023/12/24 08:38:57;;;;;;;11.70;7.15;;;;;;;2.94;61.97;96774.84;5093335;28;20369;-73
2023/12/24 08:41:23;;;;;;;13.40;7.03;;;;;;;2.74;61.89;96726.59;5088144;28;20055;-73
2023/12/24 08:43:48;;;;;;;10.15;6.13;;;;;;;3.11;61.25;96782.91;5072535;28;20040;-71
2023/12/24 08:46:13;;;;;;;11.73;6.50;;;;;;;3.15;60.70;96786.94;5073373;28;20107;-71
2023/12/24 08:48:39;;;;;;;10.45;6.60;;;;;;;3.22;61.25;96787.13;5074177;28;20039;-72
2023/12/24 08:51:05;;;;;;;11.57;7.18;;;;;;;3.27;60.89;96785.69;5076473;28;20443;-73
2023/12/24 08:53:30;;;;;;;8.95;6.60;;;;;;;3.05;60.33;96731.50;5084642;28;20036;-73
2023/12/24 08:55:56;;;;;;;8.20;6.30;;;;;;;3.35;60.02;96787.59;5093670;28;20084;-73
2023/12/24 08:58:21;;;;;;;7.32;5.90;;;;;;;3.32;60.07;96773.81;5093957;28;20036;-74
2023/12/24 09:00:47;;;;;;;7.95;5.28;;;;;;;3.35;59.66;96786.75;5088693;28;20031;-73
2023/12/24 09:03:12;;;;;;;7.50;5.65;;;;;;;3.33;58.91;96780.78;5072483;28;20036;-73
2023/12/24 09:05:38;;;;;;;10.73;5.78;;;;;;;3.26;59.62;96791.16;5074276;28;20025;-73
2023/12/24 09:08:04;;;;;;;7.35;5.63;;;;;;;3.17;59.14;96790.25;5093798;28;20024;-72
2023/12/24 09:10:29;;;;;;;7.15;5.43;;;;;;;3.15;59.31;96800.16;5092603;28;20427;-75
2023/12/24 09:12:55;;;;;;;8.38;5.93;;;;;;;3.14;59.44;96795.84;5092959;28;20361;-73
2023/12/24 09:15:20;;;;;;;9.85;6.05;;;;;;;3.25;59.85;96810.63;5085323;28;20063;-72
2023/12/24 09:17:46;;;;;;;10.00;6.45;;;;;;;3.25;59.78;96806.19;5085312;28;20110;-73
2023/12/24 09:20:12;;;;;;;12.00;5.90;;;;;;;3.25;59.21;96822.03;5088415;28;20029;-71
2023/12/24 09:22:37;;;;;;;6.60;5.30;;;;;;;3.23;58.62;96815.22;5072014;28;20037;-72
2023/12/24 09:25:04;;;;;;;7.35;4.88;;;;;;;3.16;58.81;96822.97;5073318;28;20025;-71
2023/12/24 09:27:30;;;;;;;7.20;5.00;;;;;;;3.15;59.08;96819.47;5072341;28;20087;-75
2023/12/24 09:29:56;;;;;;;6.28;5.07;;;;;;;3.11;59.28;96822.56;5071864;28;20080;-73
2023/12/24 09:32:21;;;;;;;5.80;4.70;;;;;;;3.20;59.18;96815.53;5072904;28;20024;-72
2023/12/24 09:34:47;;;;;;;8.27;5.50;;;;;;;3.23;57.99;96816.06;5059635;28;20024;-74
2023/12/24 09:37:12;;;;;;;10.30;4.65;;;;;;;3.19;57.46;96816.53;5073238;28;20028;-73
2023/12/24 09:39:38;;;;;;;7.13;4.85;;;;;;;3.05;57.78;96823.16;5076541;28;20450;-72
2023/12/24 09:42:04;;;;;;;7.78;4.78;;;;;;;2.93;57.50;96804.91;5092948;28;20020;-71
2023/12/24 09:44:30;;;;;;;7.35;4.85;;;;;;;3.16;56.98;96837.00;5093662;28;20475;-72
2023/12/24 09:46:55;;;;;;;6.22;5.05;;;;;;;3.17;57.13;96832.56;5093433;28;20103;-71
2023/12/24 09:49:21;;;;;;;6.57;5.20;;;;;;;3.20;57.62;96834.88;5087944;28;20043;-69
2023/12/24 09:51:46;;;;;;;8.73;5.60;;;;;;;3.20;57.62;96826.13;5073508;28;20068;-73
2023/12/24 09:54:14;;;;;;;6.30;5.38;;;;;;;3.00;57.14;96787.47;5074875;28;20111;-73
2023/12/24 09:56:39;;;;;;;11.27;6.43;;;;;;;3.26;57.41;96828.19;5093343;28;20031;-71
2023/12/24 09:59:05;;;;;;;7.93;5.55;;;;;;;2.93;57.35;96781.13;5082877;28;20032;-72
2023/12/24 10:01:45;;;;;;;7.20;5.70;;;;;;;3.28;57.52;96827.03;5071223;28;20132;-72
2023/12/24 10:04:11;;;;;;;8.20;5.85;;;;;;;3.22;57.67;96835.56;5083582;28;20024;-73
2023/12/24 10:06:57;;;;;;;8.15;6.05;;;;;;;3.36;58.32;96846.56;5092708;28;20028;-72
2023/12/24 10:09:24;;;;;;;8.75;6.57;;;;;;;3.23;57.62;96853.09;5091212;28;20044;-71
2023/12/24 10:12:07;;;;;;;8.27;6.50;;;;;;;3.30;57.68;96851.50;5092820;28;20036;-72
2023/12/24 10:14:34;;;;;;;9.95;6.30;;;;;;;3.11;58.12;96851.63;5092548;28;20028;-73
2023/12/24 10:17:01;;;;;;;7.63;6.30;;;;;;;3.03;58.74;96847.13;5092081;28;20039;-73
2023/12/24 10:19:28;;;;;;;9.57;6.93;;;;;;;3.07;59.42;96856.41;5075026;28;20032;-71
2023/12/24 10:22:04;;;;;;;8.65;6.78;;;;;;;3.13;59.44;96862.88;5070977;28;20112;-72
2023/12/24 10:24:31;;;;;;;14.43;6.68;;;;;;;3.11;59.12;96857.78;5072115;28;20028;-73
2023/12/24 10:27:05;;;;;;;13.68;6.55;;;;;;;3.22;58.95;96864.66;5074606;28;20028;-73
2023/12/24 10:29:31;;;;;;;9.30;6.20;;;;;;;2.97;58.38;96827.41;5070773;28;20051;-72
2023/12/24 10:31:58;;;;;;;8.27;5.90;;;;;;;3.27;58.09;96865.03;5071974;28;20071;-71
2023/12/24 10:34:24;;;;;;;8.07;6.22;;;;;;;3.32;58.26;96871.66;5088658;28;20451;-69
2023/12/24 10:36:49;;;;;;;10.65;6.15;;;;;;;3.30;57.76;96877.94;5092214;28;20032;-69
2023/12/24 10:39:18;;;;;;;8.40;6.22;;;;;;;3.26;58.69;96859.91;5075392;28;20417;-72
2023/12/24 10:41:44;;;;;;;7.45;5.35;;;;;;;3.22;57.99;96862.00;5072111;28;20040;-72
2023/12/24 10:44:09;;;;;;;6.18;5.05;;;;;;;3.25;57.80;96871.44;5072063;28;20064;-72
2023/12/24 10:46:35;;;;;;;7.88;5.45;;;;;;;3.14;57.63;96865.41;5070658;28;20063;-72
2023/12/24 10:49:01;;;;;;;8.38;5.95;;;;;;;3.21;57.11;96884.16;5087775;28;20504;-72
2023/12/24 10:51:26;;;;;;;7.65;5.88;;;;;;;3.04;57.32;96859.34;5090721;28;20028;-73
2023/12/24 10:53:53;;;;;;;8.57;5.93;;;;;;;3.21;57.73;96883.28;5072643;28;20078;-73
2023/12/24 10:56:31;;;;;;;8.57;6.65;;;;;;;3.28;57.29;96893.13;5074160;28;20036;-72
2023/12/24 10:59:20;;;;;;;7.07;5.10;;;;;;;3.41;57.09;96890.09;5091978;28;20443;-71
2023/12/24 11:01:48;;;;;;;7.25;5.03;;;;;;;3.18;56.57;96887.09;5089631;28;20089;-72
2023/12/24 11:04:47;;;;;;;6.30;5.30;;;;;;;3.32;56.44;96898.97;5076172;28;20028;-72
2023/12/24 11:07:34;;;;;;;8.50;5.47;;;;;;;3.26;56.16;96907.50;5091623;28;20094;-73
2023/12/24 11:10:01;;;;;;;10.10;5.97;;;;;;;3.03;57.03;96905.28;5092342;28;20032;-72
2023/12/24 11:12:34;;;;;;;8.00;5.53;;;;;;;3.04;56.78;96917.50;5078841;28;20028;-72
2023/12/24 11:15:01;;;;;;;8.07;5.82;;;;;;;2.97;56.83;96922.56;5070643;28;20082;-74
2023/12/24 11:17:34;;;;;;;8.20;5.63;;;;;;;2.94;57.16;96927.28;5078333;28;20317;-73
2023/12/24 11:20:20;;;;;;;10.07;6.38;;;;;;;2.99;57.86;96915.31;5092207;28;20032;-73
2023/12/24 11:23:02;;;;;;;7.10;5.15;;;;;;;2.96;57.26;96907.69;5080456;28;20037;-72
2023/12/24 11:25:38;;;;;;;8.25;6.22;;;;;;;2.84;56.69;96911.47;5071356;28;20315;-70
2023/12/24 11:28:04;;;;;;;9.52;6.47;;;;;;;2.72;57.28;96916.13;5073032;28;20340;-71
2023/12/24 11:30:50;;;;;;;8.30;5.85;;;;;;;2.81;57.39;96919.72;5076615;28;20041;-71